createdAt,value
2022-10-11T02:44:31.967Z,93.39
2022-10-11T02:45:32.050Z,93.49
2022-10-11T02:46:32.035Z,93.49
2022-10-11T02:47:31.997Z,92.40
2022-10-11T02:48:31.894Z,91.94
2022-10-11T02:49:31.851Z,91.74
2022-10-11T02:50:31.870Z,91.42
2022-10-11T02:51:31.835Z,91.63
2022-10-11T02:52:31.870Z,91.67
2022-10-11T02:53:31.841Z,91.99
2022-10-11T02:54:31.769Z,91.78
2022-10-11T02:55:31.817Z,91.78
2022-10-11T02:56:31.740Z,92.09
2022-10-11T02:57:31.777Z,91.84
2022-10-11T02:58:31.738Z,92.30
2022-10-11T02:59:32.993Z,91.88
2022-10-11T03:00:32.968Z,92.09
2022-10-11T03:01:33.100Z,92.40
2022-10-11T03:02:32.991Z,91.88
2022-10-11T03:03:32.930Z,92.25
2022-10-11T03:04:32.921Z,92.05
2022-10-11T03:05:32.902Z,91.94
2022-10-11T03:06:32.930Z,92.30
2022-10-11T03:07:32.906Z,91.78
2022-10-11T03:08:32.943Z,92.50
2022-10-11T03:09:32.945Z,93.43
2022-10-11T03:10:32.864Z,93.54
2022-10-11T03:11:32.885Z,93.54
2022-10-11T03:12:32.955Z,93.74
2022-10-11T03:13:32.919Z,93.64
2022-10-11T03:14:32.879Z,94.31
2022-10-11T03:15:32.887Z,94.68
2022-10-11T03:16:32.795Z,95.50
2022-10-11T03:17:37.110Z,95.50
2022-10-11T03:18:33.764Z,95.61
2022-10-11T03:19:32.845Z,95.50
2022-10-11T03:20:32.803Z,95.92
2022-10-11T03:21:32.828Z,95.50
2022-10-11T03:22:32.799Z,95.61
2022-10-11T03:23:32.762Z,95.81
2022-10-11T03:24:32.743Z,95.61
2022-10-11T03:25:32.697Z,95.50
2022-10-11T03:26:32.730Z,95.71
2022-10-11T03:27:32.711Z,95.71
2022-10-11T03:28:32.677Z,95.61
2022-10-11T03:29:32.710Z,95.65
2022-10-11T03:30:32.701Z,95.50
2022-10-11T03:31:32.703Z,94.82
2022-10-11T03:32:32.618Z,94.82
2022-10-11T03:33:32.561Z,95.44
2022-10-11T03:34:32.582Z,95.75
2022-10-11T03:35:32.614Z,95.96
2022-10-11T03:36:32.586Z,95.65
2022-10-11T03:37:32.554Z,95.75
2022-10-11T03:38:33.489Z,95.96
2022-10-11T03:39:32.572Z,95.86
2022-10-11T03:40:32.591Z,95.96
2022-10-11T03:41:32.511Z,95.96
2022-10-11T03:42:32.526Z,96.27
2022-10-11T03:43:32.605Z,95.81
2022-10-11T03:44:32.490Z,95.65
2022-10-11T03:45:32.563Z,95.86
2022-10-11T03:46:32.457Z,95.81
2022-10-11T03:47:32.467Z,95.50
2022-10-11T03:48:32.474Z,95.86
2022-10-11T03:49:32.494Z,95.75
2022-10-11T03:50:33.116Z,95.61
2022-10-11T03:51:32.426Z,95.61
2022-10-11T03:52:32.450Z,95.81
2022-10-11T03:53:32.448Z,95.09
2022-10-11T03:54:32.468Z,94.47
2022-10-11T03:55:32.451Z,94.06
2022-10-11T03:56:32.417Z,94.26
2022-10-11T03:57:32.425Z,93.74
2022-10-11T03:58:32.372Z,93.43
2022-10-11T03:59:32.351Z,92.55
2022-10-11T04:00:32.317Z,93.31
2022-10-11T04:01:32.387Z,93.73
2022-10-11T04:02:36.981Z,93.93
2022-10-11T04:03:34.306Z,93.73
2022-10-11T04:04:32.297Z,93.98
2022-10-11T04:05:32.291Z,94.29
2022-10-11T04:06:32.283Z,93.87
2022-10-11T04:07:32.259Z,94.12
2022-10-11T04:08:32.339Z,94.23
2022-10-11T04:09:32.297Z,94.33
2022-10-11T04:10:32.209Z,94.12
2022-10-11T04:11:32.262Z,94.33
2022-10-11T04:12:32.271Z,94.12
2022-10-11T04:13:32.259Z,94.08
2022-10-11T04:14:32.210Z,94.49
2022-10-11T04:15:32.270Z,94.23
2022-10-11T04:16:32.264Z,94.39
2022-10-11T04:17:32.173Z,93.87
2022-10-11T04:18:32.230Z,93.77
2022-10-11T04:19:32.187Z,93.98
2022-10-11T04:20:32.190Z,94.18
2022-10-11T04:21:32.122Z,93.83
2022-10-11T04:22:32.154Z,93.56
2022-10-11T04:23:32.110Z,93.21
2022-10-11T04:24:32.115Z,93.52
2022-10-11T04:25:32.089Z,93.46
2022-10-11T04:26:32.128Z,92.11
2022-10-11T04:27:32.165Z,91.53
2022-10-11T04:28:32.148Z,92.10
2022-10-11T04:29:32.860Z,92.20
2022-10-11T04:30:33.063Z,92.72
2022-10-11T04:31:32.069Z,93.49
2022-10-11T04:32:32.028Z,93.70
2022-10-11T04:33:32.070Z,94.11
2022-10-11T04:34:32.201Z,94.11
2022-10-11T04:35:32.055Z,94.53
2022-10-11T04:36:32.045Z,94.42
2022-10-11T04:37:32.032Z,94.21
2022-10-11T04:38:32.023Z,94.68
2022-10-11T04:39:31.968Z,95.04
2022-10-11T04:40:32.082Z,95.15
2022-10-11T04:41:31.992Z,95.93
2022-10-11T04:42:32.036Z,95.72
2022-10-11T04:46:13.715Z,95.67
2022-10-11T04:47:14.128Z,95.67
2022-10-11T05:10:37.163Z,94.98
2022-10-11T05:11:59.301Z,94.63
2022-10-11T05:25:48.704Z,96.24
2022-10-11T05:26:52.289Z,96.34
2022-10-11T05:27:50.471Z,96.03
2022-10-11T05:28:50.204Z,95.99
2022-10-11T05:29:51.271Z,96.09
2022-10-11T05:30:50.345Z,96.09
2022-10-11T05:33:58.434Z,95.95
2022-10-11T05:34:58.353Z,96.05
2022-10-11T05:36:00.629Z,95.95
2022-10-11T05:36:59.389Z,95.70
2022-10-11T05:37:59.391Z,96.01
2022-10-11T05:38:59.349Z,95.34
2022-10-11T05:39:59.370Z,95.75
2022-10-11T05:40:59.365Z,95.24
2022-10-11T05:41:59.346Z,94.93
2022-10-11T05:42:59.941Z,95.09
2022-10-11T05:43:59.296Z,94.68
2022-10-11T05:44:59.348Z,94.89
2022-10-11T05:45:59.350Z,94.47
2022-10-11T05:49:11.482Z,94.22
2022-10-11T05:50:11.517Z,94.06
2022-10-11T05:54:57.417Z,93.18
2022-10-11T06:03:55.757Z,93.35
2022-10-11T06:05:14.822Z,92.83
2022-10-11T06:09:02.597Z,91.96
2022-10-11T06:10:06.303Z,92.38
2022-10-11T06:11:12.066Z,92.38
2022-10-11T06:12:58.903Z,92.27
2022-10-11T06:13:17.782Z,93.30
2022-10-11T06:14:21.338Z,92.89
2022-10-11T06:15:15.642Z,92.95
2022-10-11T06:16:07.718Z,93.05
2022-10-11T06:17:02.997Z,92.91
2022-10-11T06:18:11.516Z,93.12
2022-10-11T06:19:04.723Z,93.12
2022-10-11T06:20:10.853Z,93.32
2022-10-11T06:28:05.413Z,92.04
2022-10-11T06:29:19.543Z,91.79
2022-10-11T06:30:53.390Z,91.79
2022-10-11T06:31:24.457Z,91.69
2022-10-11T06:32:25.942Z,91.17
2022-10-11T06:33:23.482Z,91.28
2022-10-11T06:34:17.908Z,90.35
2022-10-11T06:35:26.446Z,89.73
2022-10-11T06:36:31.545Z,89.83
2022-10-11T06:37:33.815Z,89.73
2022-10-11T06:39:08.227Z,89.52
2022-10-11T06:39:25.429Z,89.42
2022-10-11T06:41:46.069Z,89.52
2022-10-11T06:42:14.802Z,89.28
2022-10-11T06:42:54.889Z,89.17
2022-10-11T06:43:57.595Z,89.07
2022-10-11T06:46:42.229Z,88.76
2022-10-11T06:52:55.780Z,89.75
2022-10-11T06:53:46.860Z,90.06
2022-10-11T06:54:18.568Z,90.06
2022-10-11T07:00:42.347Z,90.18
2022-10-11T07:02:15.278Z,90.28
2022-10-11T07:04:17.193Z,90.49
2022-10-11T07:05:56.155Z,90.34
2022-10-11T07:07:54.935Z,89.83
2022-10-11T07:08:18.049Z,90.51
2022-10-11T07:09:10.216Z,90.30
2022-10-11T07:10:17.034Z,89.85
2022-10-11T07:11:30.871Z,89.54
2022-10-11T07:12:17.642Z,89.58
2022-10-11T07:13:22.210Z,89.34
2022-10-11T07:14:22.183Z,89.34
2022-10-11T07:15:45.320Z,89.09
2022-10-11T07:16:24.792Z,88.98
2022-10-11T07:17:26.669Z,88.89
2022-10-11T07:18:24.179Z,88.57
2022-10-11T07:20:53.639Z,88.89
2022-10-11T07:21:01.893Z,88.74
2022-10-11T07:22:37.142Z,88.53
2022-10-11T07:23:58.773Z,88.53
2022-10-11T07:24:02.390Z,88.49
2022-10-11T07:25:14.389Z,88.39
2022-10-11T07:33:47.541Z,87.22
2022-10-11T07:35:27.611Z,86.71
2022-10-11T07:36:12.314Z,86.60
2022-10-11T07:37:24.483Z,86.50
2022-10-11T07:37:50.764Z,86.40
2022-10-11T07:39:40.743Z,85.89
2022-10-11T07:39:52.187Z,85.78
2022-10-11T07:41:45.905Z,85.85
2022-10-11T07:45:34.445Z,86.36
2022-10-11T07:56:54.089Z,83.82
2022-10-11T07:58:00.812Z,83.61
2022-10-11T07:58:57.021Z,83.41
2022-10-11T08:04:30.241Z,83.51
2022-10-11T08:06:04.744Z,83.41
2022-10-11T08:15:12.483Z,83.27
2022-10-11T08:16:14.829Z,83.58
2022-10-11T08:19:56.971Z,83.06
2022-10-11T08:20:57.046Z,83.23
2022-10-11T08:21:57.010Z,82.96
2022-10-11T08:22:57.136Z,82.82
2022-10-11T08:23:56.967Z,82.86
2022-10-11T08:24:58.182Z,82.86
2022-10-11T08:25:58.202Z,82.82
2022-10-11T08:26:58.051Z,82.71
2022-10-11T08:27:58.059Z,81.94
2022-10-11T08:28:58.108Z,82.31
2022-10-11T08:29:58.158Z,82.55
2022-10-11T08:30:57.990Z,82.51
2022-10-11T08:31:59.016Z,82.41
2022-10-11T08:32:58.044Z,82.41
2022-10-11T08:33:58.099Z,82.17
2022-10-11T08:34:58.152Z,82.21
2022-10-11T08:35:58.017Z,81.90
2022-10-11T08:36:58.026Z,81.86
2022-10-11T08:37:57.965Z,81.86
2022-10-11T08:38:57.958Z,81.45
2022-10-11T08:39:57.908Z,80.90
2022-10-11T08:40:57.976Z,80.94
2022-10-11T08:41:57.978Z,81.10
2022-10-11T08:42:57.953Z,80.69
2022-10-11T08:43:57.942Z,80.08
2022-10-11T08:45:10.540Z,79.88
2022-10-11T08:45:59.933Z,80.19
2022-10-11T08:47:00.462Z,79.37
2022-10-11T08:47:58.825Z,79.88
2022-10-11T08:48:57.992Z,80.19
2022-10-11T08:49:57.927Z,79.74
2022-10-11T08:50:57.889Z,79.74
2022-10-11T08:51:58.136Z,78.99
2022-10-11T08:52:58.047Z,79.33
2022-10-11T08:53:57.817Z,79.02
2022-10-11T08:54:57.803Z,78.92
2022-10-11T08:55:57.896Z,77.66
2022-10-11T08:56:57.998Z,77.70
2022-10-11T08:57:57.790Z,77.90
2022-10-11T08:58:57.778Z,77.90
2022-10-11T08:59:57.801Z,77.90
2022-10-11T09:00:57.743Z,77.97
2022-10-11T09:01:57.890Z,78.38
2022-10-11T09:03:10.203Z,78.34
2022-10-11T09:03:59.726Z,77.18
2022-10-11T09:04:57.703Z,77.69
2022-10-11T09:05:57.727Z,77.28
2022-10-11T09:07:01.302Z,76.97
2022-10-11T09:07:58.684Z,77.42
2022-10-11T09:08:57.751Z,77.11
2022-10-11T09:09:57.644Z,77.62
2022-10-11T09:10:57.684Z,77.31
2022-10-11T09:11:57.617Z,77.11
2022-10-11T09:12:57.632Z,77.11
2022-10-11T09:13:57.886Z,77.56
2022-10-11T09:14:58.586Z,77.56
2022-10-11T09:15:57.600Z,77.42
2022-10-11T09:16:57.658Z,77.22
2022-10-11T09:17:57.719Z,76.90
2022-10-11T09:18:57.588Z,76.90
2022-10-11T09:19:58.616Z,77.42
2022-10-11T09:20:57.574Z,76.56
2022-10-11T09:21:57.541Z,76.70
2022-10-11T09:22:57.545Z,76.87
2022-10-11T09:23:57.530Z,77.69
2022-10-11T09:24:57.562Z,76.73
2022-10-11T09:25:57.516Z,76.77
2022-10-11T09:26:58.591Z,75.31
2022-10-11T09:28:02.965Z,75.20
2022-10-11T09:29:01.341Z,74.49
2022-10-11T09:29:58.464Z,74.90
2022-10-11T09:30:57.509Z,74.63
2022-10-11T09:31:57.493Z,75.13
2022-10-11T09:32:57.400Z,75.34
2022-10-11T09:33:57.426Z,74.08
2022-10-11T09:34:57.420Z,73.77
2022-10-11T09:35:57.453Z,73.77
2022-10-11T09:36:57.434Z,74.29
2022-10-11T09:37:57.435Z,74.35
2022-10-11T09:38:57.392Z,74.35
2022-10-11T09:39:57.377Z,74.42
2022-10-11T09:40:57.360Z,74.62
2022-10-11T09:41:57.317Z,74.42
2022-10-11T09:42:57.392Z,75.03
2022-10-11T09:43:57.506Z,75.13
2022-10-11T09:44:57.365Z,74.49
2022-10-11T09:45:57.556Z,73.57
2022-10-11T09:46:57.278Z,73.67
2022-10-11T09:47:57.370Z,72.75
2022-10-11T09:48:57.349Z,72.55
2022-10-11T09:49:57.323Z,73.26
2022-10-11T09:50:57.302Z,73.40
2022-10-11T09:51:57.213Z,73.30
2022-10-11T09:52:57.176Z,74.01
2022-10-11T09:53:57.174Z,73.16
2022-10-11T09:54:57.192Z,73.36
2022-10-11T09:55:57.212Z,73.23
2022-10-11T09:56:57.886Z,73.16
2022-10-11T09:57:57.409Z,74.25
2022-10-11T09:58:58.036Z,73.36
2022-10-11T09:59:57.168Z,73.36
2022-10-11T10:00:57.315Z,72.45
2022-10-11T10:01:57.356Z,72.72
2022-10-11T10:02:57.050Z,72.21
2022-10-11T10:03:57.050Z,71.50
2022-10-11T10:04:57.114Z,71.39
2022-10-11T10:05:57.109Z,72.28
2022-10-11T10:06:57.161Z,72.17
2022-10-11T10:07:57.090Z,71.43
2022-10-11T10:08:57.075Z,71.23
2022-10-11T10:09:57.168Z,71.02
2022-10-11T10:10:59.481Z,70.62
2022-10-11T10:11:58.138Z,70.62
2022-10-11T10:12:57.124Z,70.28
2022-10-11T10:13:57.088Z,70.48
2022-10-11T10:14:57.035Z,71.30
2022-10-11T10:15:57.039Z,71.26
2022-10-11T10:16:57.107Z,71.26
2022-10-11T10:17:56.932Z,70.45
2022-10-11T10:18:57.148Z,70.31
2022-10-11T10:19:56.973Z,69.97
2022-10-11T10:20:56.938Z,68.48
2022-10-11T10:21:57.264Z,69.29
2022-10-11T10:22:56.934Z,69.29
2022-10-11T10:23:56.947Z,68.68
2022-10-11T10:24:57.075Z,69.77
2022-10-11T10:25:56.862Z,69.13
2022-10-11T10:26:56.884Z,69.20
2022-10-11T10:27:56.839Z,68.28
2022-10-11T10:28:57.121Z,67.44
2022-10-11T10:29:56.961Z,67.00
2022-10-11T10:30:56.984Z,66.19
2022-10-11T10:32:58.759Z,64.67
2022-10-11T10:33:57.052Z,64.76
2022-10-11T10:34:57.987Z,64.56
2022-10-11T10:35:57.014Z,65.78
2022-10-11T10:36:56.927Z,64.46
2022-10-11T10:37:56.762Z,63.88
2022-10-11T10:38:56.796Z,65.84
2022-10-11T10:39:56.750Z,66.99
2022-10-11T10:40:56.785Z,67.22
2022-10-11T10:41:56.855Z,67.66
2022-10-11T10:42:57.448Z,68.58
2022-10-11T10:43:56.832Z,68.38
2022-10-11T10:44:56.842Z,69.16
2022-10-11T10:45:56.711Z,68.38
2022-10-11T10:46:56.741Z,67.27
2022-10-11T10:47:56.752Z,66.90
2022-10-11T10:49:58.779Z,66.46
2022-10-11T10:50:56.711Z,66.46
2022-10-11T10:51:56.675Z,63.72
2022-10-11T10:52:56.580Z,64.13
2022-10-11T10:53:56.593Z,63.52
2022-10-11T10:54:56.546Z,63.01
2022-10-11T10:55:57.282Z,63.42
2022-10-11T10:56:58.675Z,63.32
2022-10-11T10:57:56.599Z,63.49
2022-10-11T10:58:56.657Z,63.49
2022-10-11T10:59:56.655Z,63.35
2022-10-11T11:10:10.822Z,60.19
2022-10-11T11:11:12.343Z,60.36
2022-10-11T11:25:45.315Z,51.46
2022-10-11T11:33:14.483Z,49.22
2022-10-11T11:41:15.614Z,44.59
2022-10-11T11:42:16.897Z,44.87
2022-10-11T11:43:17.723Z,42.97
2022-10-11T11:44:16.608Z,43.82
2022-10-11T11:45:16.616Z,44.24
2022-10-11T11:46:16.709Z,43.96
2022-10-11T11:47:16.635Z,44.32
2022-10-11T11:48:17.842Z,44.96
2022-10-11T11:49:17.090Z,45.81
2022-10-11T11:50:16.629Z,47.02
2022-10-11T11:51:16.737Z,46.29
2022-10-11T11:52:19.371Z,47.07
2022-10-11T12:00:19.624Z,42.91
2022-10-11T12:13:44.995Z,44.87
2022-10-11T12:22:14.164Z,44.74
2022-10-11T12:23:19.155Z,43.64
2022-10-11T12:24:17.256Z,44.06
2022-10-11T12:25:18.358Z,45.29
2022-10-11T12:26:15.489Z,44.71
2022-10-11T12:27:14.666Z,44.28
2022-10-11T12:28:14.567Z,42.49
2022-10-11T12:29:14.507Z,42.68
2022-10-11T12:30:14.486Z,44.08
2022-10-11T12:31:14.470Z,43.90
2022-10-11T12:32:14.550Z,44.51
2022-10-11T12:33:14.468Z,45.94
2022-10-11T12:34:17.930Z,46.54
2022-10-11T12:35:19.202Z,44.91
2022-10-11T12:36:15.976Z,46.22
2022-10-11T12:37:48.789Z,45.51
2022-10-11T12:38:14.895Z,46.49
2022-10-11T12:41:28.507Z,45.09
2022-10-11T12:44:20.604Z,44.59
2022-10-11T12:45:28.231Z,45.06
2022-10-11T12:46:20.587Z,43.46
2022-10-11T12:49:36.174Z,44.06
2022-10-11T12:54:14.673Z,46.14
2022-10-11T12:54:57.929Z,45.81
2022-10-11T12:56:28.580Z,47.02
2022-10-11T12:56:56.276Z,46.80
2022-10-11T13:04:39.782Z,45.05
2022-10-11T13:07:50.337Z,46.58
2022-10-11T13:20:09.955Z,39.30
2022-10-11T13:23:45.044Z,38.48
2022-10-11T13:57:18.617Z,50.67
2022-10-11T14:05:18.118Z,53.90
2022-10-11T14:06:51.915Z,53.40
2022-10-11T14:11:05.156Z,54.66
2022-10-11T14:15:14.916Z,55.10
2022-10-11T14:16:16.373Z,56.01
2022-10-11T14:17:16.155Z,55.50
2022-10-11T14:18:16.019Z,55.30
2022-10-11T14:24:20.677Z,55.63
2022-10-11T14:29:29.721Z,56.29
2022-10-11T14:30:59.105Z,55.91
2022-10-11T14:37:57.459Z,55.78
2022-10-11T14:38:57.469Z,55.98
2022-10-11T14:39:57.291Z,55.88
2022-10-11T14:40:58.709Z,56.21
2022-10-11T14:41:58.409Z,56.01
2022-10-11T14:42:58.367Z,56.01
2022-10-11T14:43:58.320Z,56.21
2022-10-11T14:44:58.481Z,56.01
2022-10-11T14:45:58.370Z,56.62
2022-10-11T14:46:58.350Z,56.41
2022-10-11T14:47:58.377Z,55.60
2022-10-11T14:48:58.276Z,56.31
2022-10-11T14:49:58.288Z,56.21
2022-10-11T14:50:58.356Z,56.41
2022-10-11T14:51:58.318Z,55.91
2022-10-11T14:52:58.485Z,56.41
2022-10-11T14:53:58.224Z,56.41
2022-10-11T14:54:58.237Z,56.01
2022-10-11T14:55:58.229Z,56.21
2022-10-11T14:56:58.177Z,55.30
2022-10-11T14:57:58.261Z,55.50
2022-10-11T14:58:58.181Z,56.01
2022-10-11T14:59:58.883Z,55.60
2022-10-11T15:00:58.297Z,56.01
2022-10-11T15:01:58.180Z,56.21
2022-10-11T15:02:58.223Z,56.01
2022-10-11T15:03:58.127Z,55.71
2022-10-11T15:04:58.174Z,56.01
2022-10-11T15:05:58.867Z,56.31
2022-10-11T15:06:58.137Z,56.62
2022-10-11T15:07:58.116Z,56.92
2022-10-11T15:08:58.135Z,56.52
2022-10-11T15:09:58.056Z,57.12
2022-10-11T15:10:58.097Z,55.80
2022-10-11T15:11:58.104Z,55.91
2022-10-11T15:12:58.087Z,56.01
2022-10-11T15:13:58.077Z,56.82
2022-10-11T15:14:58.029Z,56.31
2022-10-11T15:15:58.053Z,56.85
2022-10-11T15:16:58.038Z,57.03
2022-10-11T15:17:57.992Z,56.85
2022-10-11T15:18:57.962Z,57.05
2022-10-11T15:19:57.947Z,56.95
2022-10-11T15:20:58.000Z,56.04
2022-10-11T15:21:57.971Z,56.44
2022-10-11T15:22:57.938Z,56.34
2022-10-11T15:23:57.935Z,56.24
2022-10-11T15:24:58.114Z,56.44
2022-10-11T15:25:58.020Z,55.83
2022-10-11T15:26:57.966Z,56.44
2022-10-11T15:28:00.146Z,57.15
2022-10-11T15:28:57.962Z,56.95
2022-10-11T15:29:57.895Z,57.05
2022-10-11T15:30:57.902Z,57.05
2022-10-11T15:31:57.903Z,56.74
2022-10-11T15:32:57.871Z,58.17
2022-10-11T15:33:58.259Z,57.05
2022-10-11T15:34:58.055Z,55.53
2022-10-11T15:35:58.174Z,55.73
2022-10-11T15:36:58.062Z,54.82
2022-10-11T15:37:57.940Z,54.61
2022-10-11T15:38:57.962Z,56.04
2022-10-11T15:39:57.889Z,56.54
2022-10-11T15:40:58.223Z,56.13
2022-10-11T15:41:58.761Z,56.26
2022-10-11T15:42:57.860Z,55.88
2022-10-11T15:43:58.028Z,55.07
2022-10-11T15:44:58.065Z,54.94
2022-10-11T15:45:58.373Z,54.94
2022-10-11T15:46:57.898Z,55.58
2022-10-11T15:48:32.003Z,54.66
2022-10-11T15:49:31.476Z,55.68
2022-10-11T15:49:57.973Z,55.68
2022-10-11T15:50:57.832Z,55.66
2022-10-11T15:51:57.838Z,55.99
2022-10-11T15:52:57.801Z,55.88
2022-10-11T15:53:57.769Z,56.39
2022-10-11T15:54:57.750Z,56.39
2022-10-11T15:55:57.754Z,56.29
2022-10-11T15:56:57.675Z,56.39
2022-10-11T15:57:57.705Z,56.39
2022-10-11T15:58:57.665Z,55.38
2022-10-11T15:59:57.679Z,55.58
2022-10-11T16:00:57.631Z,56.29
2022-10-11T16:01:57.848Z,55.60
2022-10-11T16:02:57.729Z,56.01
2022-10-11T16:03:57.660Z,57.03
2022-10-11T16:04:57.617Z,56.73
2022-10-11T16:06:02.375Z,56.42
2022-10-11T16:06:58.808Z,57.97
2022-10-11T16:07:57.646Z,59.30
2022-10-11T16:08:57.572Z,57.79
2022-10-11T16:09:57.631Z,57.79
2022-10-11T16:10:57.597Z,58.10
2022-10-11T16:11:57.608Z,58.30
2022-10-11T16:12:57.583Z,57.29
2022-10-11T16:13:58.472Z,58.00
2022-10-11T16:14:57.559Z,59.32
2022-10-11T16:15:57.606Z,59.35
2022-10-11T16:17:00.156Z,57.92
2022-10-11T16:17:57.521Z,59.14
2022-10-11T16:18:57.572Z,59.25
2022-10-11T16:19:57.545Z,59.96
2022-10-11T16:20:57.414Z,59.25
2022-10-11T16:21:57.507Z,58.64
2022-10-11T16:22:57.456Z,60.30
2022-10-11T16:23:57.456Z,58.97
2022-10-11T16:24:57.486Z,60.39
2022-10-11T16:25:57.424Z,61.95
2022-10-11T16:26:57.448Z,61.44
2022-10-11T16:27:57.454Z,60.22
2022-10-11T16:28:57.380Z,61.95
2022-10-11T16:29:57.471Z,61.78
2022-10-11T16:30:57.375Z,62.70
2022-10-11T16:31:57.429Z,62.18
2022-10-11T16:32:57.392Z,63.75
2022-10-11T16:33:57.359Z,63.85
2022-10-11T16:34:57.330Z,64.05
2022-10-11T16:35:57.422Z,64.87
2022-10-11T16:36:57.376Z,65.81
2022-10-11T16:37:57.341Z,65.00
2022-10-11T16:38:57.346Z,66.15
2022-10-11T16:39:57.351Z,66.69
2022-10-11T16:40:57.369Z,67.95
2022-10-11T16:41:57.364Z,68.60
2022-10-11T16:42:57.282Z,68.80
2022-10-11T16:43:57.275Z,69.24
2022-10-11T16:44:57.377Z,70.06
2022-10-11T16:45:57.331Z,70.50
2022-10-11T16:46:57.238Z,70.81
2022-10-11T16:47:57.249Z,71.15
2022-10-11T16:48:57.259Z,70.74
2022-10-11T16:49:57.166Z,71.04
2022-10-11T16:50:57.173Z,70.87
2022-10-11T16:51:57.244Z,71.62
2022-10-11T16:52:57.316Z,71.93
2022-10-11T16:53:57.200Z,71.73
2022-10-11T16:54:57.214Z,71.86
2022-10-11T16:56:30.961Z,73.50
2022-10-11T17:05:50.080Z,75.01
2022-10-11T17:06:52.529Z,75.21
2022-10-11T17:07:51.452Z,75.11
2022-10-11T17:08:51.140Z,73.88
2022-10-11T17:09:51.100Z,75.73
2022-10-11T17:10:51.098Z,76.28
2022-10-11T17:11:51.037Z,75.87
2022-10-11T17:12:51.052Z,76.34
2022-10-11T17:13:51.057Z,75.56
2022-10-11T17:14:51.023Z,76.28
2022-10-11T17:15:51.063Z,76.86
2022-10-11T17:16:50.998Z,76.48
2022-10-11T17:17:51.017Z,75.97
2022-10-11T17:18:50.965Z,75.76
2022-10-11T17:19:50.956Z,75.56
2022-10-11T17:20:50.920Z,75.35
2022-10-11T17:21:51.015Z,75.76
2022-10-11T17:22:50.970Z,75.90
2022-10-11T17:23:50.940Z,75.90
2022-10-11T17:24:50.924Z,75.29
2022-10-11T17:25:50.955Z,76.10
2022-10-11T17:26:50.939Z,76.00
2022-10-11T17:27:50.894Z,75.59
2022-10-11T17:28:50.923Z,75.70
2022-10-11T17:29:50.960Z,76.42
2022-10-11T17:30:50.955Z,76.21
2022-10-11T17:31:50.888Z,75.63
2022-10-11T17:32:50.929Z,76.04
2022-10-11T17:33:50.874Z,76.25
2022-10-11T17:34:51.814Z,76.45
2022-10-11T17:35:50.778Z,77.06
2022-10-11T17:36:50.933Z,77.78
2022-10-11T17:37:50.862Z,78.20
2022-10-11T17:38:50.922Z,77.58
2022-10-11T17:39:50.841Z,77.99
2022-10-11T17:40:50.884Z,77.68
2022-10-11T17:41:50.796Z,77.89
2022-10-11T17:42:50.754Z,77.27
2022-10-11T17:43:50.780Z,77.82
2022-10-11T17:44:50.734Z,78.09
2022-10-11T17:45:50.762Z,77.62
2022-10-11T17:46:50.752Z,77.92
2022-10-11T17:47:50.743Z,78.23
2022-10-11T17:48:50.679Z,77.20
2022-10-11T17:49:50.682Z,78.06
2022-10-11T17:50:50.954Z,78.06
2022-10-11T17:51:51.709Z,77.72
2022-10-11T17:52:50.722Z,78.06
2022-10-11T17:53:50.658Z,78.58
2022-10-11T17:54:50.647Z,78.51
2022-10-11T17:55:50.860Z,79.54
2022-10-11T17:56:50.647Z,79.54
2022-10-11T17:57:50.622Z,79.64
2022-10-11T17:58:50.618Z,79.88
2022-10-11T17:59:50.606Z,79.54
2022-10-11T18:00:50.655Z,79.54
2022-10-11T18:01:50.559Z,79.54
2022-10-11T18:02:50.591Z,80.16
2022-10-11T18:03:50.584Z,79.68
2022-10-11T18:04:50.532Z,79.23
2022-10-11T18:05:50.532Z,79.75
2022-10-11T18:06:50.604Z,79.88
2022-10-11T18:07:50.616Z,80.19
2022-10-11T18:08:50.527Z,79.88
2022-10-11T18:09:51.510Z,79.79
2022-10-11T18:10:50.516Z,79.99
2022-10-11T18:11:50.508Z,79.79
2022-10-11T18:12:51.064Z,80.65
2022-10-11T18:13:50.439Z,80.09
2022-10-11T18:14:50.503Z,80.75
2022-10-11T18:15:53.590Z,80.54
2022-10-11T18:16:51.437Z,80.54
2022-10-11T18:17:50.412Z,80.54
2022-10-11T18:18:50.387Z,80.75
2022-10-11T18:19:50.371Z,80.79
2022-10-11T18:20:50.440Z,80.58
2022-10-11T18:21:50.443Z,80.68
2022-10-11T18:22:50.418Z,81.23
2022-10-11T18:23:50.436Z,81.65
2022-10-11T18:24:50.351Z,81.96
2022-10-11T18:25:50.769Z,82.37
2022-10-11T18:26:51.298Z,82.61
2022-10-11T18:27:50.344Z,82.30
2022-10-11T18:28:50.584Z,82.61
2022-10-11T18:29:50.965Z,82.40
2022-10-11T18:30:50.315Z,83.03
2022-10-11T18:31:50.587Z,82.92
2022-10-11T18:32:52.210Z,82.92
2022-10-11T18:33:50.241Z,83.44
2022-10-11T18:34:51.076Z,83.44
2022-10-11T18:35:54.513Z,83.44
2022-10-11T18:36:50.243Z,83.54
2022-10-11T18:37:50.341Z,84.06
2022-10-11T18:38:50.831Z,84.16
2022-10-11T18:39:50.973Z,84.36
2022-10-11T18:40:51.642Z,84.06
2022-10-11T18:41:50.159Z,82.65
2022-10-11T18:42:50.295Z,83.06
2022-10-11T18:43:51.174Z,83.48
2022-10-11T18:44:51.132Z,84.30
2022-10-11T18:45:50.262Z,84.41
2022-10-11T18:46:50.222Z,84.65
2022-10-11T18:47:50.131Z,84.30
2022-10-11T18:48:50.111Z,84.09
2022-10-11T18:49:51.094Z,84.20
2022-10-11T18:50:50.456Z,84.61
2022-10-11T18:51:50.045Z,84.23
2022-10-11T18:52:50.162Z,84.20
2022-10-11T18:53:50.078Z,83.89
2022-10-11T18:54:50.003Z,84.51
2022-10-11T18:55:50.126Z,84.61
2022-10-11T18:56:50.053Z,84.41
2022-10-11T18:57:50.083Z,84.51
2022-10-11T18:58:50.125Z,84.09
2022-10-11T18:59:50.603Z,83.68
2022-10-11T19:00:51.268Z,84.20
2022-10-11T19:01:50.122Z,84.03
2022-10-11T19:02:51.550Z,84.34
2022-10-11T19:03:53.102Z,84.23
2022-10-11T19:04:50.719Z,84.38
2022-10-11T19:05:50.200Z,84.07
2022-10-11T19:06:51.016Z,84.59
2022-10-11T19:07:49.884Z,85.62
2022-10-11T19:08:49.930Z,85.21
2022-10-11T19:09:50.731Z,85.00
2022-10-11T19:10:49.973Z,84.52
2022-10-11T19:11:51.628Z,85.76
2022-10-11T19:12:49.908Z,84.83
2022-10-11T19:13:50.175Z,84.63
2022-10-11T19:14:49.874Z,84.66
2022-10-11T19:15:49.814Z,84.77
2022-10-11T19:16:49.854Z,84.97
2022-10-11T19:17:50.829Z,85.91
2022-10-11T19:18:49.843Z,85.70
2022-10-11T19:19:49.906Z,86.01
2022-10-11T19:20:49.811Z,86.52
2022-10-11T19:21:49.804Z,87.15
2022-10-11T19:22:49.786Z,86.94
2022-10-11T19:23:49.777Z,87.25
2022-10-11T19:24:49.756Z,87.25
2022-10-11T19:25:49.898Z,86.94
2022-10-11T19:26:49.725Z,86.52
2022-10-11T19:27:49.746Z,86.42
2022-10-11T19:28:49.805Z,86.36
2022-10-11T19:29:49.743Z,87.18
2022-10-11T19:30:50.756Z,87.25
2022-10-11T19:31:49.757Z,87.49
2022-10-11T19:32:49.712Z,87.18
2022-10-11T19:33:49.689Z,87.18
2022-10-11T19:34:49.737Z,87.08
2022-10-11T19:35:49.755Z,87.39
2022-10-11T19:36:49.648Z,87.49
2022-10-11T19:37:49.738Z,87.91
2022-10-11T19:38:49.730Z,88.22
2022-10-11T19:39:49.694Z,88.01
2022-10-11T19:40:49.629Z,88.32
2022-10-11T19:41:49.615Z,88.07
2022-10-11T19:42:49.680Z,87.97
2022-10-11T19:43:49.612Z,88.28
2022-10-11T19:44:49.584Z,88.18
2022-10-11T19:45:49.620Z,88.28
2022-10-11T19:46:51.915Z,88.28
2022-10-11T19:47:50.658Z,87.93
2022-10-11T19:48:49.581Z,87.66
2022-10-11T19:49:49.553Z,88.18
2022-10-11T19:50:49.489Z,87.97
2022-10-11T19:51:50.172Z,87.56
2022-10-11T19:52:49.511Z,87.66
2022-10-11T19:53:49.572Z,87.00
2022-10-11T19:54:49.496Z,86.73
2022-10-11T19:55:49.492Z,85.80
2022-10-11T19:56:49.442Z,85.97
2022-10-11T19:57:49.406Z,85.80
2022-10-11T19:58:49.729Z,85.49
2022-10-11T20:06:38.749Z,88.18
2022-10-11T20:07:37.933Z,87.91
2022-10-11T20:08:37.862Z,87.97
2022-10-11T20:09:39.201Z,87.87
2022-10-11T20:10:39.010Z,87.76
2022-10-11T20:11:39.824Z,87.66
2022-10-11T20:12:43.595Z,87.46
2022-10-11T20:13:41.241Z,86.52
2022-10-11T20:14:38.970Z,86.52
2022-10-11T20:15:38.894Z,86.63
2022-10-11T20:16:38.883Z,86.73
2022-10-11T20:17:38.946Z,86.63
2022-10-11T20:18:39.821Z,86.52
2022-10-11T20:33:54.192Z,87.02
2022-10-11T20:35:35.565Z,87.29
2022-10-11T20:39:35.077Z,87.99
2022-10-11T20:41:18.056Z,87.99
2022-10-11T20:42:01.299Z,88.30
2022-10-11T20:51:06.215Z,89.73
2022-10-11T20:53:23.741Z,90.14
2022-10-11T20:53:38.756Z,91.18
2022-10-11T20:54:48.794Z,91.08
2022-10-11T20:55:48.649Z,91.08
2022-10-11T20:59:10.607Z,90.58
2022-10-11T21:00:50.114Z,89.96